createdAt,value
2019-01-29T00:01:41.233Z,95.50
2019-01-29T00:06:42.740Z,95.50
2019-01-29T00:11:44.015Z,95.80
2019-01-29T00:16:45.412Z,95.80
2019-01-29T00:21:46.836Z,95.80
2019-01-29T00:26:48.179Z,96.00
2019-01-29T00:32:08.256Z,95.90
2019-01-29T00:37:09.856Z,95.90
2019-01-29T00:42:11.193Z,96.10
2019-01-29T00:47:12.575Z,96.00
2019-01-29T00:52:13.916Z,96.00
2019-01-29T00:57:15.305Z,95.90
2019-01-29T01:02:16.688Z,96.00
2019-01-29T01:07:18.009Z,95.80
2019-01-29T01:12:19.407Z,95.90
2019-01-29T01:17:20.717Z,96.00
2019-01-29T01:22:22.022Z,96.20
2019-01-29T01:27:23.366Z,96.60
2019-01-29T01:32:24.767Z,96.50
2019-01-29T01:37:27.742Z,96.50
2019-01-29T01:42:29.108Z,96.20
2019-01-29T01:47:30.844Z,96.30
2019-01-29T01:52:32.163Z,96.10
2019-01-29T01:57:33.601Z,96.00
2019-01-29T02:02:35.160Z,95.80
2019-01-29T02:07:36.486Z,95.70
2019-01-29T02:12:37.933Z,95.70
2019-01-29T02:17:39.242Z,95.60
2019-01-29T02:22:40.795Z,95.60
2019-01-29T02:27:42.450Z,95.50
2019-01-29T02:32:43.735Z,95.40
2019-01-29T02:37:45.267Z,95.30
2019-01-29T02:42:46.557Z,95.40
2019-01-29T02:47:48.086Z,95.60
2019-01-29T02:52:49.400Z,95.60
2019-01-29T02:57:51.199Z,95.70
2019-01-29T03:02:52.527Z,95.80
2019-01-29T03:07:53.958Z,95.90
2019-01-29T03:12:55.296Z,95.90
2019-01-29T03:17:56.615Z,95.80
2019-01-29T03:22:57.940Z,95.70
2019-01-29T03:27:59.959Z,95.50
2019-01-29T03:33:01.253Z,95.40
2019-01-29T03:38:02.706Z,95.40
2019-01-29T03:43:04.004Z,95.40
2019-01-29T03:48:05.403Z,95.50
2019-01-29T03:53:06.747Z,95.60
2019-01-29T03:58:08.190Z,95.80
2019-01-29T04:03:09.449Z,95.90
2019-01-29T04:08:10.772Z,96.00
2019-01-29T04:13:12.118Z,96.00
2019-01-29T04:18:13.443Z,96.00
2019-01-29T04:23:14.884Z,96.10
2019-01-29T04:28:16.278Z,96.20
2019-01-29T04:33:17.718Z,96.20
2019-01-29T04:38:19.009Z,96.10
2019-01-29T04:43:20.458Z,96.00
2019-01-29T04:48:21.979Z,96.00
2019-01-29T04:53:23.375Z,96.00
2019-01-29T04:58:24.715Z,96.00
2019-01-29T05:03:26.034Z,96.00
2019-01-29T05:08:27.444Z,95.90
2019-01-29T05:13:28.869Z,95.80
2019-01-29T05:18:32.073Z,95.80
2019-01-29T05:23:33.830Z,95.80
2019-01-29T05:28:35.170Z,95.80
2019-01-29T05:33:36.494Z,95.80
2019-01-29T05:38:37.819Z,95.70
2019-01-29T05:43:39.412Z,95.80
2019-01-29T05:48:41.060Z,96.20
2019-01-29T05:53:42.493Z,95.60
2019-01-29T05:58:43.962Z,95.60
2019-01-29T06:03:45.377Z,95.60
2019-01-29T06:08:46.667Z,95.50
2019-01-29T06:13:48.092Z,95.50
2019-01-29T06:18:49.581Z,95.40
2019-01-29T06:23:50.908Z,95.60
2019-01-29T06:28:52.190Z,95.50
2019-01-29T06:33:53.562Z,95.60
2019-01-29T06:38:54.905Z,95.80
2019-01-29T06:43:56.202Z,95.80
2019-01-29T06:48:57.503Z,95.80
2019-01-29T06:53:58.858Z,95.60
2019-01-29T06:59:00.213Z,95.80
2019-01-29T07:04:01.532Z,95.90
2019-01-29T07:09:07.097Z,95.80
2019-01-29T07:14:08.574Z,95.70
2019-01-29T07:24:22.237Z,95.60
2019-01-29T07:29:23.587Z,95.60
2019-01-29T07:34:25.003Z,95.60
2019-01-29T07:39:26.395Z,95.60
2019-01-29T07:44:27.726Z,95.60
2019-01-29T07:49:29.059Z,95.60
2019-01-29T07:54:33.341Z,95.50
2019-01-29T07:59:33.939Z,95.60
2019-01-29T08:04:35.302Z,95.70
2019-01-29T08:09:36.614Z,95.80
2019-01-29T08:14:37.955Z,95.90
2019-01-29T08:19:39.449Z,95.90
2019-01-29T08:24:40.817Z,96.00
2019-01-29T08:29:42.132Z,96.20
2019-01-29T08:34:43.445Z,96.30
2019-01-29T08:39:45.069Z,96.50
2019-01-29T08:44:46.472Z,96.60
2019-01-29T08:49:47.856Z,96.60
2019-01-29T08:54:49.115Z,96.60
2019-01-29T08:59:50.611Z,96.70
2019-01-29T09:04:51.961Z,96.80
2019-01-29T09:09:53.278Z,96.80
2019-01-29T09:14:54.621Z,96.80
2019-01-29T09:19:56.104Z,96.80
2019-01-29T09:24:57.433Z,96.90
2019-01-29T09:29:58.851Z,96.90
2019-01-29T09:35:00.260Z,96.90
2019-01-29T09:40:02.386Z,97.00
2019-01-29T09:45:08.654Z,97.00
2019-01-29T09:50:15.730Z,97.10
2019-01-29T09:55:28.800Z,97.00
2019-01-29T10:00:33.439Z,97.00
2019-01-29T10:05:34.834Z,97.00
2019-01-29T10:10:36.147Z,96.90
2019-01-29T10:15:39.381Z,96.80
2019-01-29T10:20:40.717Z,96.70
2019-01-29T10:25:42.113Z,96.50
2019-01-29T10:30:43.397Z,96.60
2019-01-29T10:35:44.741Z,96.40
2019-01-29T10:40:46.111Z,96.30
2019-01-29T10:45:47.490Z,96.20
2019-01-29T10:50:48.796Z,96.10
2019-01-29T10:55:50.119Z,96.00
2019-01-29T11:00:51.472Z,96.00
2019-01-29T11:05:52.929Z,95.80
2019-01-29T11:10:54.353Z,95.60
2019-01-29T11:15:55.792Z,95.40
2019-01-29T11:20:57.136Z,95.30
2019-01-29T11:25:59.503Z,95.20
2019-01-29T11:31:01.084Z,95.10
2019-01-29T11:36:02.517Z,95.00
2019-01-29T11:41:03.925Z,94.90
2019-01-29T11:46:05.442Z,94.70
2019-01-29T11:51:06.747Z,94.60
2019-01-29T11:56:08.056Z,94.60
2019-01-29T12:01:11.283Z,94.60
2019-01-29T12:06:12.584Z,94.40
2019-01-29T12:11:14.003Z,94.30
2019-01-29T12:16:15.398Z,94.20
2019-01-29T12:21:18.551Z,94.30
2019-01-29T12:26:19.932Z,94.20
2019-01-29T12:31:21.212Z,94.10
2019-01-29T12:36:22.801Z,94.00
2019-01-29T12:41:24.177Z,93.90
2019-01-29T12:46:25.547Z,93.40
2019-01-29T12:51:28.789Z,93.70
2019-01-29T12:56:30.086Z,93.60
2019-01-29T13:01:31.518Z,93.50
2019-01-29T13:06:32.953Z,93.40
2019-01-29T13:11:34.303Z,93.30
2019-01-29T13:16:35.604Z,93.20
2019-01-29T13:21:37.013Z,93.00
2019-01-29T13:26:38.337Z,92.90
2019-01-29T13:31:39.815Z,92.90
2019-01-29T13:36:41.129Z,92.90
2019-01-29T13:41:42.482Z,92.70
2019-01-29T13:46:45.322Z,92.40
2019-01-29T13:51:46.651Z,92.50
2019-01-29T13:56:48.080Z,92.30
2019-01-29T14:01:49.594Z,92.30
2019-01-29T14:06:50.893Z,92.10
2019-01-29T14:11:52.226Z,92.50
2019-01-29T14:16:53.593Z,92.20
2019-01-29T14:21:55.058Z,92.10
2019-01-29T14:26:56.661Z,92.10
2019-01-29T14:31:58.016Z,92.20
2019-01-29T14:36:59.389Z,91.90
2019-01-29T14:42:00.772Z,91.90
2019-01-29T14:47:02.924Z,92.00
2019-01-29T14:52:04.351Z,92.10
2019-01-29T14:57:06.896Z,92.20
2019-01-29T15:02:08.265Z,92.30
2019-01-29T15:07:10.484Z,91.70
2019-01-29T15:12:12.255Z,92.20
2019-01-29T15:17:24.621Z,92.10
2019-01-29T15:22:26.204Z,92.20
2019-01-29T15:27:27.559Z,92.20
2019-01-29T15:32:28.934Z,92.10
2019-01-29T15:37:30.295Z,92.10
2019-01-29T15:42:31.815Z,91.90
2019-01-29T15:47:33.900Z,92.20
2019-01-29T15:52:35.677Z,92.20
2019-01-29T15:57:37.249Z,92.30
2019-01-29T16:02:38.680Z,92.40
2019-01-29T16:07:40.873Z,92.40
2019-01-29T16:12:42.364Z,92.20
2019-01-29T16:17:43.913Z,92.20
2019-01-29T16:22:45.535Z,92.40
2019-01-29T16:27:46.836Z,92.20
2019-01-29T16:32:48.756Z,92.20
2019-01-29T16:37:51.263Z,92.40
2019-01-29T16:42:52.826Z,92.30
2019-01-29T16:47:54.596Z,92.20
2019-01-29T16:52:56.674Z,92.20
2019-01-29T16:57:58.041Z,92.40
2019-01-29T17:02:59.362Z,92.30
2019-01-29T17:08:00.667Z,92.30
2019-01-29T17:13:02.173Z,92.30
2019-01-29T17:18:07.253Z,92.30
2019-01-29T17:23:09.518Z,92.30
2019-01-29T17:28:11.530Z,92.30
2019-01-29T17:33:15.451Z,92.40
2019-01-29T17:38:16.748Z,92.30
2019-01-29T17:43:18.113Z,92.20
2019-01-29T17:48:19.551Z,92.20
2019-01-29T17:53:20.939Z,92.20
2019-01-29T17:58:22.472Z,92.20
2019-01-29T18:03:24.595Z,92.10
2019-01-29T18:08:26.131Z,92.00
2019-01-29T18:13:27.591Z,92.00
2019-01-29T18:18:31.924Z,91.90
2019-01-29T18:23:33.305Z,92.00
2019-01-29T18:28:35.035Z,91.90
2019-01-29T18:33:36.493Z,91.80
2019-01-29T18:38:46.494Z,91.70
2019-01-29T18:43:47.989Z,91.80
2019-01-29T18:48:49.542Z,91.60
2019-01-29T18:53:50.809Z,91.60
2019-01-29T18:58:52.210Z,91.50
2019-01-29T19:03:55.249Z,91.40
2019-01-29T19:08:57.977Z,91.40
2019-01-29T19:13:59.626Z,91.40
2019-01-29T19:19:01.131Z,91.20
2019-01-29T19:24:02.474Z,91.30
2019-01-29T19:29:06.422Z,91.10
2019-01-29T19:34:07.153Z,91.10
2019-01-29T19:39:08.561Z,91.10
2019-01-29T19:44:09.954Z,91.10
2019-01-29T19:49:11.450Z,91.00
2019-01-29T19:54:12.850Z,91.10
2019-01-29T19:59:14.157Z,90.90
2019-01-29T20:04:34.396Z,90.90
2019-01-29T20:09:35.845Z,90.70
2019-01-29T20:14:37.270Z,90.70
2019-01-29T20:19:38.769Z,90.80
2019-01-29T20:24:40.073Z,90.70
2019-01-29T20:29:42.181Z,90.80
2019-01-29T20:34:43.612Z,90.90
2019-01-29T20:39:45.066Z,90.80
2019-01-29T20:44:46.446Z,90.90
2019-01-29T20:49:48.223Z,90.80
2019-01-29T20:54:49.668Z,90.80
2019-01-29T20:59:50.972Z,90.70
2019-01-29T21:04:52.455Z,90.70
2019-01-29T21:09:53.745Z,90.60
2019-01-29T21:14:55.152Z,90.70
2019-01-29T21:19:56.516Z,90.40
2019-01-29T21:24:57.903Z,90.50
2019-01-29T21:29:59.244Z,90.40
2019-01-29T21:35:00.675Z,90.40
2019-01-29T21:40:09.065Z,90.40
2019-01-29T21:45:14.588Z,90.30
2019-01-29T21:50:32.150Z,90.20
2019-01-29T21:55:33.522Z,90.10
2019-01-29T22:00:40.936Z,89.80
2019-01-29T22:05:42.419Z,90.20
2019-01-29T22:10:43.721Z,90.20
2019-01-29T22:15:47.370Z,90.00
2019-01-29T22:20:48.603Z,90.00
2019-01-29T22:25:50.206Z,90.00
2019-01-29T22:30:51.491Z,90.00
2019-01-29T22:35:52.788Z,90.00
2019-01-29T22:40:54.152Z,90.00
2019-01-29T22:45:55.579Z,90.10
2019-01-29T22:50:56.910Z,90.10
2019-01-29T22:55:58.257Z,90.10
2019-01-29T23:01:26.559Z,90.10
2019-01-29T23:06:48.857Z,90.10
2019-01-29T23:11:50.251Z,90.00
2019-01-29T23:16:51.703Z,90.00
2019-01-29T23:21:53.003Z,90.10
2019-01-29T23:26:54.439Z,90.00
2019-01-29T23:31:56.000Z,90.10
2019-01-29T23:36:57.312Z,90.20
2019-01-29T23:41:58.723Z,90.30
2019-01-29T23:47:00.403Z,90.20
2019-01-29T23:52:01.934Z,90.30
2019-01-29T23:57:03.257Z,90.40
